createdAt,value
2023-01-04T06:03:10.757Z,7.84
2023-01-04T06:05:37.433Z,7.88
2023-01-04T06:08:04.571Z,7.87
2023-01-04T06:10:31.205Z,7.94
2023-01-04T06:12:58.399Z,7.94
2023-01-04T06:15:24.991Z,7.98
2023-01-04T06:17:52.191Z,8.00
2023-01-04T06:20:18.772Z,8.06
2023-01-04T06:22:45.994Z,8.09
2023-01-04T06:25:12.584Z,8.09
2023-01-04T06:27:39.792Z,8.14
2023-01-04T06:30:07.158Z,8.14
2023-01-04T06:32:34.271Z,8.15
2023-01-04T06:35:00.875Z,8.21
2023-01-04T06:37:28.550Z,8.25
2023-01-04T06:39:55.127Z,8.27
2023-01-04T06:42:41.047Z,8.26
2023-01-04T06:45:08.003Z,8.29
2023-01-04T06:47:34.934Z,8.30
2023-01-04T06:50:01.607Z,8.29
2023-01-04T06:52:28.879Z,8.29
2023-01-04T06:54:55.425Z,8.30
2023-01-04T06:57:22.671Z,8.33
2023-01-04T06:59:49.272Z,8.37
2023-01-04T07:02:17.382Z,8.40
2023-01-04T07:04:44.219Z,8.41
2023-01-04T07:07:11.893Z,8.41
2023-01-04T07:09:38.628Z,8.43
2023-01-04T07:12:06.334Z,8.43
2023-01-04T07:14:35.291Z,8.45
2023-01-04T07:17:02.217Z,8.41
2023-01-04T07:19:28.820Z,8.44
2023-01-04T07:21:56.133Z,8.42
2023-01-04T07:24:28.092Z,8.46
2023-01-04T07:26:57.501Z,8.48
2023-01-04T07:29:24.107Z,8.51
2023-01-04T07:31:52.701Z,8.55
2023-01-04T07:34:22.005Z,8.55
2023-01-04T07:36:50.472Z,8.60
2023-01-04T07:39:18.293Z,8.58
2023-01-04T07:41:46.328Z,8.61
2023-01-04T07:44:15.971Z,8.61
2023-01-04T07:46:43.364Z,8.60
2023-01-04T07:49:17.845Z,8.63
2023-01-04T07:51:47.576Z,8.66
2023-01-04T07:54:15.651Z,8.65
2023-01-04T07:56:43.598Z,8.65
2023-01-04T07:59:11.988Z,8.68
2023-01-04T08:01:39.651Z,8.64
2023-01-04T08:04:07.688Z,8.67
2023-01-04T08:06:36.367Z,8.70
2023-01-04T08:09:04.339Z,8.69
2023-01-04T08:11:32.336Z,8.70
2023-01-04T08:13:58.931Z,8.72
2023-01-04T08:16:34.759Z,8.72
2023-01-04T08:19:14.566Z,8.70
2023-01-04T08:21:42.039Z,8.69
2023-01-04T08:24:11.222Z,8.70
2023-01-04T08:26:38.436Z,8.69
2023-01-04T08:29:05.038Z,8.73
2023-01-04T08:31:33.528Z,8.72
2023-01-04T08:34:03.398Z,8.71
2023-01-04T08:36:33.648Z,8.72
2023-01-04T08:39:02.706Z,8.76
2023-01-04T08:41:57.142Z,8.76
2023-01-04T08:44:22.152Z,8.78
2023-01-04T08:46:49.540Z,8.77
2023-01-04T08:49:16.507Z,8.75
2023-01-04T08:51:44.391Z,8.78
2023-01-04T08:54:11.758Z,8.80
2023-01-04T08:56:39.325Z,8.80
2023-01-04T08:59:06.520Z,8.86
2023-01-04T09:01:35.214Z,8.88
2023-01-04T09:04:02.299Z,8.91
2023-01-04T09:06:30.196Z,8.91
2023-01-04T09:08:57.703Z,8.89
2023-01-04T09:11:25.985Z,8.90
2023-01-04T09:14:09.427Z,8.88
2023-01-04T09:16:38.198Z,8.94
2023-01-04T09:19:06.682Z,8.97
2023-01-04T09:21:33.633Z,9.02
2023-01-04T09:24:00.576Z,8.99
2023-01-04T09:26:27.110Z,9.05
2023-01-04T09:28:55.782Z,9.08
2023-01-04T09:31:26.078Z,9.08
2023-01-04T09:36:40.705Z,9.16
2023-01-04T09:39:09.873Z,9.18
2023-01-04T09:41:48.028Z,9.17
2023-01-04T09:44:54.499Z,9.20
2023-01-04T09:47:39.789Z,9.20
2023-01-04T09:50:43.268Z,9.23
2023-01-04T09:53:16.823Z,9.27
2023-01-04T09:55:49.852Z,9.29
2023-01-04T09:58:36.458Z,9.34
2023-01-04T10:01:06.356Z,9.34
2023-01-04T10:03:34.295Z,9.32
2023-01-04T10:06:02.546Z,9.29
2023-01-04T10:08:31.389Z,9.26
2023-01-04T10:11:35.978Z,9.25
2023-01-04T10:14:21.090Z,9.23
2023-01-04T10:17:23.821Z,9.25
2023-01-04T10:22:49.437Z,9.21
2023-01-04T10:25:16.587Z,9.24
2023-01-04T10:28:05.915Z,9.23
2023-01-04T10:30:47.739Z,9.20
2023-01-04T10:33:18.639Z,9.22
2023-01-04T10:35:46.024Z,9.20
2023-01-04T10:38:25.567Z,9.17
2023-01-04T10:40:54.360Z,9.19
2023-01-04T10:44:10.988Z,9.24
2023-01-04T10:46:48.318Z,9.22
2023-01-04T10:49:35.149Z,9.23
2023-01-04T10:52:12.513Z,9.25
2023-01-04T10:54:47.915Z,9.25
2023-01-04T10:57:28.994Z,9.25
2023-01-04T11:00:04.176Z,9.27
2023-01-04T11:02:38.316Z,9.26
2023-01-04T11:05:12.862Z,9.30
2023-01-04T11:07:58.087Z,9.32
2023-01-04T11:10:37.855Z,9.31
2023-01-04T11:13:06.750Z,9.30
2023-01-04T11:15:34.768Z,9.32
2023-01-04T11:18:05.983Z,9.29
2023-01-04T11:20:37.742Z,9.32
2023-01-04T11:23:13.033Z,9.31
2023-01-04T11:25:50.461Z,9.34
2023-01-04T11:28:39.159Z,9.36
2023-01-04T11:31:19.895Z,9.38
2023-01-04T11:33:59.515Z,9.38
2023-01-04T11:36:44.598Z,9.41
2023-01-04T11:39:22.834Z,9.41
2023-01-04T11:42:04.010Z,9.44
2023-01-04T11:44:32.687Z,9.41
2023-01-04T11:47:08.263Z,9.41
2023-01-04T11:49:36.756Z,9.41
2023-01-04T11:52:08.782Z,9.43
2023-01-04T11:54:35.344Z,9.40
2023-01-04T11:57:11.087Z,9.43
2023-01-04T11:59:38.951Z,9.45
2023-01-04T12:02:59.670Z,9.49
2023-01-04T12:05:28.732Z,9.47
2023-01-04T12:07:59.161Z,9.49
2023-01-04T12:10:28.057Z,9.52
2023-01-04T12:12:56.821Z,9.54
2023-01-04T12:15:37.673Z,9.54
2023-01-04T12:18:13.162Z,9.56
2023-01-04T12:20:39.773Z,9.57
2023-01-04T12:23:07.195Z,9.58
2023-01-04T12:25:45.363Z,9.53
2023-01-04T12:28:41.664Z,9.59
2023-01-04T12:31:21.118Z,9.63
2023-01-04T12:34:15.646Z,9.67
2023-01-04T12:36:44.733Z,9.65
2023-01-04T12:39:14.768Z,9.69
2023-01-04T12:41:41.349Z,9.69
2023-01-04T12:44:40.767Z,9.71
2023-01-04T12:47:49.088Z,9.74
2023-01-04T12:50:18.852Z,9.76
2023-01-04T12:55:43.818Z,9.77
2023-01-04T13:02:14.676Z,9.79
2023-01-04T13:04:41.793Z,9.81
2023-01-04T13:07:19.207Z,9.84
2023-01-04T13:09:52.062Z,9.84
2023-01-04T13:12:45.481Z,9.84
2023-01-04T13:15:44.309Z,9.87
2023-01-04T13:18:24.548Z,9.90
2023-01-04T13:20:51.224Z,9.93
2023-01-04T13:23:18.566Z,9.96
2023-01-04T13:25:45.121Z,9.96
2023-01-04T13:28:18.496Z,9.96
2023-01-04T13:30:46.682Z,10.00
2023-01-04T13:33:27.129Z,10.03
2023-01-04T13:36:10.760Z,10.04
2023-01-04T13:38:40.322Z,10.06
2023-01-04T13:41:22.745Z,10.10
2023-01-04T13:44:16.191Z,10.15
2023-01-04T13:46:43.700Z,10.15
2023-01-04T13:49:15.459Z,10.18
2023-01-04T13:51:42.092Z,10.21
2023-01-04T13:54:23.871Z,10.22
2023-01-04T13:56:55.644Z,10.26
2023-01-04T13:59:23.477Z,10.28
2023-01-04T14:01:50.760Z,10.27
2023-01-04T14:04:27.114Z,10.30
2023-01-04T14:06:57.815Z,10.35
2023-01-04T14:09:31.333Z,10.37
2023-01-04T14:12:07.242Z,10.38
2023-01-04T14:15:01.054Z,10.39
2023-01-04T14:17:35.284Z,10.43
2023-01-04T14:20:26.622Z,10.44
2023-01-04T14:22:56.156Z,10.47
2023-01-04T14:25:41.182Z,10.48
2023-01-04T14:28:24.471Z,10.53
2023-01-04T14:31:13.883Z,10.58
2023-01-04T14:33:52.501Z,10.57
2023-01-04T14:36:27.222Z,10.61
2023-01-04T14:39:12.957Z,10.65
2023-01-04T14:41:52.610Z,10.70
2023-01-04T14:44:21.973Z,10.71
2023-01-04T14:46:53.628Z,10.74
2023-01-04T14:49:22.457Z,10.74
2023-01-04T14:51:54.413Z,10.77
2023-01-04T14:54:25.602Z,10.78
2023-01-04T14:56:57.496Z,10.78
2023-01-04T14:59:25.801Z,10.76
2023-01-04T15:01:53.994Z,10.79
2023-01-04T15:04:21.818Z,10.78
2023-01-04T15:06:51.328Z,10.85
2023-01-04T15:09:18.591Z,10.82
2023-01-04T15:11:45.260Z,10.86
2023-01-04T15:14:12.690Z,10.84
2023-01-04T15:16:39.866Z,10.88
2023-01-04T15:19:07.331Z,10.89
2023-01-04T15:21:40.614Z,10.92
2023-01-04T15:24:10.055Z,10.92
2023-01-04T15:26:37.755Z,10.90
2023-01-04T15:29:07.069Z,10.89
2023-01-04T15:31:38.944Z,10.92
2023-01-04T15:34:06.730Z,10.89
2023-01-04T15:36:35.022Z,10.90
2023-01-04T15:39:02.303Z,10.93
2023-01-04T15:41:47.153Z,10.92
2023-01-04T15:44:14.431Z,10.95
2023-01-04T15:46:41.084Z,10.93
2023-01-04T15:49:13.323Z,10.93
2023-01-04T15:51:43.712Z,10.96
2023-01-04T15:54:10.965Z,10.97
2023-01-04T15:56:37.587Z,10.96
2023-01-04T15:59:04.984Z,11.00
2023-01-04T16:01:31.660Z,10.99
2023-01-04T16:03:58.933Z,11.03
2023-01-04T16:06:26.644Z,11.01
2023-01-04T16:08:53.930Z,11.02
2023-01-04T16:11:23.752Z,11.00
2023-01-04T16:13:52.692Z,11.02
2023-01-04T16:16:20.969Z,10.99
2023-01-04T16:18:50.175Z,11.01
2023-01-04T16:21:21.059Z,11.04
2023-01-04T16:24:03.935Z,11.05
2023-01-04T16:26:32.928Z,11.06
2023-01-04T16:29:01.064Z,11.02
2023-01-04T16:31:36.228Z,11.04
2023-01-04T16:34:05.065Z,11.05
2023-01-04T16:36:31.894Z,11.06
2023-01-04T16:38:59.046Z,11.07
2023-01-04T16:41:26.016Z,11.05
2023-01-04T16:43:59.736Z,11.08
2023-01-04T16:46:36.907Z,11.03
2023-01-04T16:49:05.694Z,11.03
2023-01-04T16:51:34.637Z,11.10
2023-01-04T16:54:03.729Z,11.10
2023-01-04T16:56:31.412Z,11.08
2023-01-04T16:58:58.685Z,11.10
2023-01-04T17:01:28.383Z,11.09
2023-01-04T17:03:58.852Z,11.08
2023-01-04T17:06:28.616Z,11.09
2023-01-04T17:08:57.209Z,11.08
2023-01-04T17:14:16.687Z,11.12
2023-01-04T17:16:43.938Z,11.11
2023-01-04T17:19:11.213Z,11.11
2023-01-04T17:21:37.761Z,11.07
2023-01-04T17:24:04.843Z,11.08
2023-01-04T17:26:33.179Z,11.09
2023-01-04T17:29:01.364Z,11.06
2023-01-04T17:31:31.210Z,11.07
2023-01-04T17:33:57.975Z,11.08
2023-01-04T17:36:25.548Z,11.07
2023-01-04T17:38:52.263Z,11.08
2023-01-04T17:41:22.455Z,11.07
2023-01-04T17:43:51.993Z,11.05
2023-01-04T17:46:23.419Z,11.03
2023-01-04T17:48:58.878Z,11.02
2023-01-04T17:51:40.250Z,11.03
2023-01-04T17:54:08.648Z,11.02
2023-01-04T17:56:37.076Z,10.98
2023-01-04T17:59:06.778Z,11.03
2023-01-04T18:01:35.386Z,11.03
2023-01-04T18:04:03.134Z,11.07
2023-01-04T18:06:33.324Z,11.07
2023-01-04T18:09:00.832Z,11.08
2023-01-04T18:11:28.218Z,11.09
2023-01-04T18:13:54.961Z,11.09
2023-01-04T18:16:28.066Z,11.05
2023-01-04T18:18:57.457Z,11.06
2023-01-04T18:21:30.296Z,11.03
2023-01-04T18:27:20.000Z,11.06
2023-01-04T18:29:33.717Z,11.08
2023-01-04T18:32:01.280Z,11.04
2023-01-04T18:34:28.001Z,11.07
2023-01-04T18:36:55.320Z,11.02
2023-01-04T18:39:22.291Z,10.99
2023-01-04T18:41:49.549Z,11.04
2023-01-04T18:44:32.790Z,11.02
2023-01-04T18:47:01.525Z,11.04
2023-01-04T18:49:28.157Z,11.02
2023-01-04T18:51:55.005Z,11.02
2023-01-04T18:54:21.874Z,10.95
2023-01-04T18:56:49.112Z,10.90
2023-01-04T18:59:18.749Z,10.89
2023-01-04T19:01:46.459Z,10.90
2023-01-04T19:04:16.058Z,10.88
2023-01-04T19:06:43.349Z,10.88
2023-01-04T19:09:10.157Z,10.88
2023-01-04T19:11:37.030Z,10.86
2023-01-04T19:14:04.080Z,10.91
2023-01-04T19:16:31.982Z,10.91
2023-01-04T19:18:59.685Z,10.90
2023-01-04T19:21:27.967Z,10.92
2023-01-04T19:23:54.813Z,10.89
2023-01-04T19:26:22.630Z,10.91
2023-01-04T19:28:49.930Z,10.94
2023-01-04T19:31:18.450Z,10.93
2023-01-04T19:33:45.829Z,10.92
2023-01-04T19:36:15.106Z,10.95
2023-01-04T19:38:42.166Z,10.94
2023-01-04T19:41:15.744Z,10.92
2023-01-04T19:43:42.921Z,10.94
2023-01-04T19:46:11.950Z,10.94
2023-01-04T19:48:39.336Z,10.92
2023-01-04T19:51:11.895Z,10.95
2023-01-04T19:53:39.122Z,10.95
2023-01-04T19:56:07.149Z,10.95
2023-01-04T19:58:34.229Z,10.91
2023-01-04T20:01:01.258Z,10.89
2023-01-04T20:03:27.977Z,10.90
2023-01-04T20:05:55.284Z,10.92
2023-01-04T20:08:22.500Z,10.89
2023-01-04T20:10:56.109Z,10.89
2023-01-04T20:13:23.279Z,10.90
2023-01-04T20:15:51.542Z,10.87
2023-01-04T20:18:18.856Z,10.86
2023-01-04T20:20:46.569Z,10.82
2023-01-04T20:23:14.930Z,10.81
2023-01-04T20:25:44.788Z,10.78
2023-01-04T20:28:12.123Z,10.71
2023-01-04T20:30:40.248Z,10.65
2023-01-04T20:33:07.764Z,10.58
2023-01-04T20:35:38.904Z,10.47
2023-01-04T20:38:05.461Z,10.42
2023-01-04T20:40:33.732Z,10.38
2023-01-04T20:43:18.865Z,10.27
2023-01-04T20:45:47.787Z,10.18
2023-01-04T20:48:15.825Z,10.10
2023-01-04T20:50:43.420Z,10.07
2023-01-04T20:53:11.318Z,10.06
2023-01-04T20:55:40.589Z,10.06
2023-01-04T20:58:11.804Z,10.00
2023-01-04T21:00:39.729Z,10.01
2023-01-04T21:03:08.148Z,9.98
2023-01-04T21:05:40.732Z,9.98
2023-01-04T21:08:07.946Z,9.96
2023-01-04T21:10:36.205Z,9.98
2023-01-04T21:13:03.750Z,9.97
2023-01-04T21:15:31.259Z,9.92
2023-01-04T21:17:57.911Z,9.93
2023-01-04T21:20:25.418Z,9.94
2023-01-04T21:22:51.964Z,9.90
2023-01-04T21:25:19.189Z,9.90
2023-01-04T21:27:45.752Z,9.94
